Elnora, New York
Current Conditions -  °F | °C
As of 4:51 AM on Sunday 21 Dec 2014 (Local Time) from KALB Reporting Station
Light Snow Light Snow  
Wind Chill: 28°   Ceiling: 3000
Heat Index: 28°   Visibility: 10mi
Dew Point: 20°   Wind: 0mph
Humidity: 72%   Direction: NA
Pressure: 30.31"   Gusts: NA
Location:  42.8536°N, 73.7851°W
Report Text: KALB 210951Z 00000KT 10SM -SN SCT021 BKN030 OVC039 M02/M07 A3031 RMK AO2 SLP268 PCPN VRY LGT P0000 T10221067
Loading
Personal Weather Stations






























Interactive Weather Map New forecast layout! Learn more

10-Day Weather Forecast

Advertisements
Track Severe Weather on mobile